createdAt,value
2023-03-17T00:03:41.724Z,62.83
2023-03-17T00:07:54.644Z,62.78
2023-03-17T00:12:10.811Z,62.59
2023-03-17T00:16:25.529Z,62.80
2023-03-17T00:20:37.402Z,62.76
2023-03-17T00:24:48.962Z,63.01
2023-03-17T00:29:00.447Z,63.00
2023-03-17T00:33:12.499Z,63.08
2023-03-17T00:37:24.734Z,63.12
2023-03-17T00:41:36.347Z,63.32
2023-03-17T00:45:48.336Z,63.15
2023-03-17T00:50:00.080Z,63.09
2023-03-17T00:54:12.911Z,63.24
2023-03-17T00:58:30.713Z,63.10
2023-03-17T01:02:42.311Z,63.43
2023-03-17T01:06:54.446Z,63.20
2023-03-17T01:11:07.367Z,63.17
2023-03-17T01:15:20.372Z,63.44
2023-03-17T01:19:32.630Z,63.18
2023-03-17T01:23:44.284Z,63.26
2023-03-17T01:27:59.881Z,63.14
2023-03-17T01:32:11.758Z,63.19
2023-03-17T01:36:23.517Z,63.13
2023-03-17T01:40:39.064Z,63.20
2023-03-17T01:44:58.229Z,62.93
2023-03-17T01:49:10.020Z,63.03
2023-03-17T01:53:23.271Z,63.03
2023-03-17T01:57:45.067Z,62.64
2023-03-17T02:02:03.356Z,62.95
2023-03-17T02:06:14.994Z,62.99
2023-03-17T02:10:30.037Z,62.93
2023-03-17T02:14:41.908Z,62.88
2023-03-17T02:18:53.553Z,63.02
2023-03-17T02:23:06.437Z,62.82
2023-03-17T02:27:23.098Z,63.26
2023-03-17T02:31:35.605Z,62.88
2023-03-17T02:35:47.895Z,63.23
2023-03-17T02:40:01.794Z,63.21
2023-03-17T02:44:13.415Z,63.31
2023-03-17T02:48:25.160Z,63.28
2023-03-17T02:52:37.368Z,63.29
2023-03-17T02:56:48.993Z,63.13
2023-03-17T03:01:00.821Z,63.17
2023-03-17T03:05:12.739Z,63.32
2023-03-17T03:09:24.449Z,63.74
2023-03-17T03:13:37.254Z,63.58
2023-03-17T03:17:48.883Z,63.48
2023-03-17T03:22:00.846Z,63.48
2023-03-17T03:26:12.488Z,63.31
2023-03-17T03:30:24.107Z,63.31
2023-03-17T03:34:35.654Z,63.72
2023-03-17T03:38:47.501Z,63.46
2023-03-17T03:42:59.245Z,63.06
2023-03-17T03:47:11.451Z,63.07
2023-03-17T03:51:23.206Z,63.10
2023-03-17T03:55:34.763Z,62.99
2023-03-17T03:59:46.415Z,63.13
2023-03-17T04:03:58.104Z,62.96
2023-03-17T04:08:11.118Z,62.92
2023-03-17T04:12:22.841Z,63.35
2023-03-17T04:16:34.555Z,63.00
2023-03-17T04:20:46.208Z,62.89
2023-03-17T04:24:57.791Z,63.40
2023-03-17T04:29:10.727Z,63.28
2023-03-17T04:33:22.432Z,63.04
2023-03-17T04:37:34.713Z,63.49
2023-03-17T04:41:46.491Z,63.19
2023-03-17T04:45:58.176Z,63.60
2023-03-17T04:50:10.566Z,63.23
2023-03-17T04:54:22.217Z,63.57
2023-03-17T04:58:33.834Z,63.72
2023-03-17T05:02:45.682Z,63.85
2023-03-17T05:06:58.270Z,63.80
2023-03-17T05:11:09.796Z,63.99
2023-03-17T05:15:21.465Z,63.64
2023-03-17T05:19:33.238Z,63.72
2023-03-17T05:23:45.224Z,63.90
2023-03-17T05:27:57.102Z,63.69
2023-03-17T05:32:09.033Z,63.91
2023-03-17T05:36:21.272Z,63.87
2023-03-17T05:40:33.265Z,64.22
2023-03-17T05:44:45.289Z,64.01
2023-03-17T05:48:57.272Z,64.17
2023-03-17T05:53:09.668Z,64.21
2023-03-17T05:57:21.971Z,64.46
2023-03-17T06:01:33.591Z,64.30
2023-03-17T06:05:45.857Z,64.53
2023-03-17T06:09:57.477Z,64.46
2023-03-17T06:14:09.123Z,64.40
2023-03-17T06:18:20.984Z,64.24
2023-03-17T06:22:33.010Z,64.20
2023-03-17T06:26:45.108Z,64.04
2023-03-17T06:30:56.821Z,63.85
2023-03-17T06:35:08.961Z,63.81
2023-03-17T06:39:21.102Z,63.46
2023-03-17T06:43:32.672Z,63.22
2023-03-17T06:47:44.308Z,63.02
2023-03-17T06:51:55.963Z,63.35
2023-03-17T06:56:12.518Z,62.97
2023-03-17T07:00:30.440Z,61.81
2023-03-17T07:04:42.335Z,61.50
2023-03-17T07:08:53.978Z,60.84
2023-03-17T07:13:07.792Z,60.66
2023-03-17T07:17:19.752Z,60.02
2023-03-17T07:21:31.501Z,59.56
2023-03-17T07:25:43.763Z,59.24
2023-03-17T07:29:55.434Z,58.92
2023-03-17T07:34:07.675Z,59.03
2023-03-17T07:38:19.922Z,58.56
2023-03-17T07:42:31.605Z,58.08
2023-03-17T07:46:43.287Z,58.07
2023-03-17T07:50:54.916Z,58.03
2023-03-17T07:55:12.949Z,57.63
2023-03-17T07:59:24.708Z,56.88
2023-03-17T08:03:38.639Z,56.81
2023-03-17T08:07:51.583Z,56.52
2023-03-17T08:12:04.290Z,55.62
2023-03-17T08:16:16.100Z,54.55
2023-03-17T08:20:29.330Z,52.43
2023-03-17T08:24:43.034Z,51.31
2023-03-17T08:28:54.883Z,48.57
2023-03-17T08:33:06.849Z,45.99
2023-03-17T08:37:18.564Z,45.06
2023-03-17T08:41:30.363Z,44.51
2023-03-17T08:45:42.068Z,42.33
2023-03-17T08:49:53.842Z,42.07
2023-03-17T08:54:06.954Z,41.24
2023-03-17T08:58:20.129Z,37.96
2023-03-17T09:02:31.866Z,37.61
2023-03-17T09:07:01.361Z,37.72
2023-03-17T09:11:17.175Z,37.25
2023-03-17T09:15:29.536Z,37.12
2023-03-17T09:19:41.640Z,36.99
2023-03-17T09:23:53.239Z,36.25
2023-03-17T09:28:07.203Z,35.67
2023-03-17T09:32:18.811Z,35.39
2023-03-17T09:36:31.758Z,35.43
2023-03-17T09:41:20.295Z,34.67
2023-03-17T09:45:43.375Z,35.09
2023-03-17T09:50:03.060Z,36.01
2023-03-17T09:54:36.365Z,36.71
2023-03-17T09:58:55.008Z,36.64
2023-03-17T10:03:10.625Z,36.13
2023-03-17T10:07:44.606Z,35.74
2023-03-17T10:12:04.096Z,35.12
2023-03-17T10:16:23.189Z,34.81
2023-03-17T10:20:40.732Z,34.48
2023-03-17T10:24:57.365Z,34.55
2023-03-17T10:29:17.487Z,33.82
2023-03-17T10:33:29.225Z,33.72
2023-03-17T10:37:43.914Z,34.03
2023-03-17T10:42:07.772Z,34.40
2023-03-17T10:46:29.977Z,35.29
2023-03-17T10:50:41.590Z,35.94
2023-03-17T10:54:54.505Z,36.40
2023-03-17T10:59:09.191Z,36.55
2023-03-17T11:03:27.472Z,36.39
2023-03-17T11:07:40.931Z,36.15
2023-03-17T11:12:01.762Z,35.88
2023-03-17T11:16:24.409Z,35.54
2023-03-17T11:20:56.788Z,35.76
2023-03-17T11:25:23.453Z,35.76
2023-03-17T11:29:50.795Z,35.97
2023-03-17T11:34:13.965Z,36.18
2023-03-17T11:38:43.343Z,36.52
2023-03-17T11:43:11.098Z,37.42
2023-03-17T11:47:48.315Z,38.15
2023-03-17T11:52:16.453Z,38.21
2023-03-17T11:56:40.862Z,37.95
2023-03-17T12:00:57.121Z,37.40
2023-03-17T12:05:15.488Z,36.71
2023-03-17T12:09:40.945Z,36.90
2023-03-17T12:14:02.291Z,36.95
2023-03-17T12:18:16.671Z,36.84
2023-03-17T12:22:33.733Z,37.01
2023-03-17T12:26:54.227Z,36.96
2023-03-17T12:31:34.288Z,36.73
2023-03-17T12:35:46.269Z,36.65
2023-03-17T12:44:41.865Z,36.92
2023-03-17T12:48:56.253Z,36.71
2023-03-17T12:53:21.728Z,37.23
2023-03-17T12:57:43.777Z,37.32
2023-03-17T13:01:59.882Z,37.94
2023-03-17T13:06:24.824Z,37.97
2023-03-17T13:11:24.764Z,38.07
2023-03-17T13:15:39.922Z,38.19
2023-03-17T13:20:07.251Z,38.16
2023-03-17T13:24:23.290Z,38.79
2023-03-17T13:29:39.991Z,39.48
2023-03-17T14:05:27.358Z,39.24
2023-03-17T14:09:42.342Z,38.95
2023-03-17T14:14:26.102Z,38.95
2023-03-17T14:18:49.704Z,38.97
2023-03-17T14:23:06.752Z,38.97
2023-03-17T14:27:18.854Z,39.08
2023-03-17T14:31:31.625Z,39.34
2023-03-17T14:35:43.635Z,39.47
2023-03-17T14:39:57.883Z,39.61
2023-03-17T14:44:09.857Z,39.75
2023-03-17T14:48:36.842Z,39.45
2023-03-17T14:52:50.451Z,39.76
2023-03-17T14:57:06.998Z,39.75
2023-03-17T15:01:42.877Z,39.80
2023-03-17T15:06:05.659Z,40.02
2023-03-17T15:10:24.531Z,40.16
2023-03-17T15:14:40.015Z,40.70
2023-03-17T15:19:04.057Z,40.79
2023-03-17T15:24:40.087Z,41.57
2023-03-17T15:34:57.408Z,42.25
2023-03-17T15:39:09.435Z,42.47
2023-03-17T15:43:22.376Z,43.12
2023-03-17T15:47:37.100Z,43.96
2023-03-17T15:51:49.056Z,44.71
2023-03-17T15:56:00.953Z,45.04
2023-03-17T16:00:20.909Z,45.29
2023-03-17T16:04:32.751Z,45.53
2023-03-17T16:08:45.362Z,45.65
2023-03-17T16:12:57.790Z,46.10
2023-03-17T16:17:28.970Z,46.45
2023-03-17T16:21:41.430Z,46.73
2023-03-17T16:25:55.450Z,47.11
2023-03-17T16:30:16.644Z,47.28
2023-03-17T16:34:28.482Z,47.42
2023-03-17T16:38:52.157Z,47.87
2023-03-17T16:43:10.422Z,47.76
2023-03-17T16:47:27.761Z,48.13
2023-03-17T16:51:39.548Z,48.28
2023-03-17T16:55:53.384Z,48.61
2023-03-17T17:00:07.340Z,48.94
2023-03-17T17:04:19.124Z,49.29
2023-03-17T17:08:30.796Z,49.61
2023-03-17T17:12:42.695Z,49.77
2023-03-17T17:16:54.627Z,50.36
2023-03-17T17:21:07.286Z,50.54
2023-03-17T17:25:19.106Z,51.46
2023-03-17T17:29:32.399Z,51.50
2023-03-17T17:33:44.400Z,51.92
2023-03-17T17:37:56.221Z,52.09
2023-03-17T17:42:11.036Z,52.22
2023-03-17T17:46:24.084Z,52.45
2023-03-17T17:50:35.942Z,52.43
2023-03-17T17:54:47.837Z,52.74
2023-03-17T17:59:01.845Z,52.99
2023-03-17T18:03:13.703Z,53.22
2023-03-17T18:07:25.777Z,53.45
2023-03-17T18:11:40.216Z,53.66
2023-03-17T18:15:52.311Z,53.72
2023-03-17T18:20:04.721Z,53.91
2023-03-17T18:24:16.543Z,54.04
2023-03-17T18:28:28.613Z,54.49
2023-03-17T18:32:42.934Z,54.55
2023-03-17T18:36:57.473Z,54.54
2023-03-17T18:41:11.213Z,54.78
2023-03-17T18:45:23.256Z,54.97
2023-03-17T18:49:35.233Z,55.29
2023-03-17T18:53:46.974Z,55.17
2023-03-17T18:57:58.847Z,55.54
2023-03-17T19:02:10.675Z,55.24
2023-03-17T19:06:23.630Z,55.09
2023-03-17T19:10:35.735Z,55.11
2023-03-17T19:14:47.871Z,55.00
2023-03-17T19:18:59.667Z,54.55
2023-03-17T19:23:11.464Z,54.40
2023-03-17T19:27:23.259Z,54.04
2023-03-17T19:31:35.248Z,53.30
2023-03-17T19:35:54.343Z,53.26
2023-03-17T19:40:09.579Z,52.81
2023-03-17T19:44:22.405Z,52.56
2023-03-17T19:48:34.187Z,52.39
2023-03-17T19:52:46.386Z,52.19
2023-03-17T19:56:58.155Z,51.68
2023-03-17T20:01:10.085Z,51.67
2023-03-17T20:05:21.895Z,51.65
2023-03-17T20:09:33.797Z,51.51
2023-03-17T20:14:11.647Z,51.70
2023-03-17T20:18:23.499Z,51.67
2023-03-17T20:22:35.298Z,51.68
2023-03-17T20:26:49.574Z,51.76
2023-03-17T20:31:05.893Z,51.88
2023-03-17T20:35:18.785Z,52.07
2023-03-17T20:39:30.855Z,52.06
2023-03-17T20:43:42.947Z,52.45
2023-03-17T20:47:55.342Z,52.69
2023-03-17T20:52:08.704Z,52.90
2023-03-17T20:56:23.629Z,52.85
2023-03-17T21:00:35.707Z,52.86
2023-03-17T21:04:48.954Z,52.92
2023-03-17T21:09:13.401Z,53.26
2023-03-17T21:13:25.362Z,53.55
2023-03-17T21:17:42.338Z,53.82
2023-03-17T21:21:54.118Z,53.44
2023-03-17T21:26:05.995Z,53.81
2023-03-17T21:30:19.943Z,53.65
2023-03-17T21:34:32.348Z,54.20
2023-03-17T21:38:44.113Z,54.06
2023-03-17T21:43:04.634Z,54.23
2023-03-17T21:47:16.949Z,54.16
2023-03-17T21:51:29.731Z,54.32
2023-03-17T21:55:42.467Z,54.34
2023-03-17T21:59:54.498Z,54.40
2023-03-17T22:04:08.208Z,54.57
2023-03-17T22:08:20.133Z,54.73
2023-03-17T22:12:32.171Z,55.00
2023-03-17T22:16:47.541Z,55.28
2023-03-17T22:21:00.125Z,55.51
2023-03-17T22:25:11.882Z,55.68
2023-03-17T22:29:24.429Z,56.04
2023-03-17T22:33:36.218Z,56.36
2023-03-17T22:37:49.128Z,56.40
2023-03-17T22:42:01.728Z,56.67
2023-03-17T22:46:14.504Z,56.94
2023-03-17T22:50:26.279Z,57.18
2023-03-17T22:54:38.066Z,57.46
2023-03-17T22:58:49.937Z,57.91
2023-03-17T23:03:02.077Z,57.83
2023-03-17T23:07:14.720Z,57.81
2023-03-17T23:11:27.064Z,57.87
2023-03-17T23:15:39.005Z,58.00
2023-03-17T23:19:50.843Z,58.37
2023-03-17T23:24:04.154Z,58.53
2023-03-17T23:28:16.068Z,58.77
2023-03-17T23:32:28.011Z,58.87
2023-03-17T23:36:40.303Z,59.25
2023-03-17T23:40:56.772Z,59.18
2023-03-17T23:45:08.780Z,59.46
2023-03-17T23:49:20.911Z,59.29
2023-03-17T23:53:32.975Z,59.53
2023-03-17T23:57:44.976Z,60.02
